Terminal Aerodrome Forecast
Issued by NWS

Home | Current Version | Previous Version | Text Only | Print | Product List | Glossary On
Versions: 1 2 3 4 5 6 7 8 9 10 11 12 13 14 15 16 17
000
FTUS44 KLIX 022300
TAFMCB
TAF
KMCB 022340Z 0300/0324 34008KT P6SM VCTS FEW050CB BKN080 OVC120
     FM030300 00000KT P6SM BKN100
     FM031500 00000KT P6SM SCT040 BKN100
      TEMPO 0319/0323 17024G35KT 1SM +TSRA BKN035CB=

USA.gov is the U.S. government's official web portal to all federal, state and local government web resources and services.